createdAt,value
2022-12-24T00:03:52.628Z,10.75
2022-12-24T00:08:52.479Z,10.83
2022-12-24T00:13:52.402Z,10.93
2022-12-24T00:18:52.366Z,10.99
2022-12-24T00:23:52.272Z,11.04
2022-12-24T00:28:52.221Z,11.13
2022-12-24T00:33:52.137Z,11.22
2022-12-24T00:38:52.092Z,11.30
2022-12-24T00:43:52.003Z,11.35
2022-12-24T00:48:51.958Z,11.33
2022-12-24T00:53:51.871Z,11.30
2022-12-24T00:58:51.821Z,11.32
2022-12-24T01:03:51.939Z,11.30
2022-12-24T01:08:51.745Z,11.35
2022-12-24T01:13:51.610Z,11.36
2022-12-24T01:18:51.543Z,11.37
2022-12-24T01:23:51.463Z,11.37
2022-12-24T01:28:51.407Z,11.37
2022-12-24T01:33:51.350Z,11.37
2022-12-24T01:38:51.276Z,11.40
2022-12-24T01:43:51.208Z,11.45
2022-12-24T01:48:51.153Z,11.43
2022-12-24T01:53:51.067Z,11.40
2022-12-24T01:58:51.032Z,11.36
2022-12-24T02:03:51.014Z,11.35
2022-12-24T02:08:50.894Z,11.30
2022-12-24T02:13:50.806Z,11.25
2022-12-24T02:18:50.803Z,11.27
2022-12-24T02:23:50.679Z,11.29
2022-12-24T02:28:50.609Z,11.37
2022-12-24T02:33:50.590Z,11.43
2022-12-24T02:38:50.487Z,11.45
2022-12-24T02:43:50.412Z,11.45
2022-12-24T02:48:50.344Z,11.41
2022-12-24T02:53:50.284Z,11.33
2022-12-24T02:58:50.214Z,11.29
2022-12-24T03:03:50.137Z,11.30
2022-12-24T03:08:50.099Z,11.26
2022-12-24T03:13:50.016Z,11.14
2022-12-24T03:18:49.942Z,11.11
2022-12-24T03:23:49.875Z,11.11
2022-12-24T03:28:49.809Z,11.11
2022-12-24T03:33:49.746Z,11.13
2022-12-24T03:38:49.678Z,11.14
2022-12-24T03:43:49.612Z,11.18
2022-12-24T03:48:49.542Z,11.17
2022-12-24T03:53:49.485Z,11.17
2022-12-24T03:58:49.412Z,11.17
2022-12-24T04:03:49.351Z,11.18
2022-12-24T04:08:49.292Z,11.18
2022-12-24T04:13:49.214Z,11.17
2022-12-24T04:18:49.144Z,11.17
2022-12-24T04:23:49.076Z,11.17
2022-12-24T04:28:49.014Z,11.17
2022-12-24T04:33:48.940Z,11.16
2022-12-24T04:38:48.886Z,11.13
2022-12-24T04:43:48.811Z,11.11
2022-12-24T04:48:48.761Z,11.03
2022-12-24T04:53:48.689Z,10.88
2022-12-24T04:58:48.626Z,10.75
2022-12-24T05:03:48.567Z,10.73
2022-12-24T05:08:48.484Z,10.62
2022-12-24T05:13:48.480Z,10.55
2022-12-24T05:18:48.350Z,10.49
2022-12-24T05:23:48.289Z,10.34
2022-12-24T05:28:48.217Z,10.22
2022-12-24T05:33:48.159Z,10.16
2022-12-24T05:38:48.093Z,10.07
2022-12-24T05:43:48.037Z,10.04
2022-12-24T05:48:47.977Z,10.05
2022-12-24T05:53:47.992Z,10.07
2022-12-24T05:58:47.862Z,10.07
2022-12-24T06:03:47.759Z,10.09
2022-12-24T06:08:47.682Z,10.09
2022-12-24T06:13:47.631Z,10.02
2022-12-24T06:18:47.549Z,10.05
2022-12-24T06:23:47.498Z,10.07
2022-12-24T06:28:47.419Z,10.02
2022-12-24T06:33:47.353Z,10.04
2022-12-24T06:38:47.273Z,9.99
2022-12-24T06:43:47.212Z,9.94
2022-12-24T06:48:47.142Z,9.86
2022-12-24T06:53:47.096Z,9.75
2022-12-24T06:58:47.017Z,9.67
2022-12-24T07:03:47.023Z,9.61
2022-12-24T07:08:46.909Z,9.60
2022-12-24T07:13:46.818Z,9.54
2022-12-24T07:18:46.740Z,9.45
2022-12-24T07:23:46.705Z,9.42
2022-12-24T07:28:46.607Z,9.39
2022-12-24T07:33:46.558Z,9.35
2022-12-24T07:38:46.481Z,9.42
2022-12-24T07:43:46.424Z,9.55
2022-12-24T07:48:46.350Z,9.82
2022-12-24T07:53:46.287Z,10.09
2022-12-24T07:58:46.213Z,10.48
2022-12-24T08:03:46.356Z,11.10
2022-12-24T08:08:46.085Z,11.86
2022-12-24T08:13:46.020Z,11.18
2022-12-24T08:18:45.945Z,11.13
2022-12-24T08:23:45.886Z,12.42
2022-12-24T08:28:45.824Z,12.87
2022-12-24T08:33:45.752Z,13.80
2022-12-24T08:38:45.681Z,14.66
2022-12-24T08:43:45.629Z,15.32
2022-12-24T08:48:45.543Z,15.64
2022-12-24T08:53:45.483Z,14.77
2022-12-24T08:58:45.403Z,16.04
2022-12-24T09:03:45.432Z,17.11
2022-12-24T09:08:45.284Z,17.88
2022-12-24T09:13:45.234Z,17.78
2022-12-24T09:18:45.143Z,15.57
2022-12-24T09:23:45.083Z,15.77
2022-12-24T09:28:45.013Z,17.79
2022-12-24T09:33:44.945Z,19.08
2022-12-24T09:38:44.902Z,18.78
2022-12-24T09:43:44.818Z,16.16
2022-12-24T09:48:44.769Z,14.87
2022-12-24T09:53:44.677Z,16.67
2022-12-24T09:58:44.614Z,14.59
2022-12-24T10:03:44.639Z,14.93
2022-12-24T10:08:44.479Z,15.92
2022-12-24T10:13:44.415Z,17.36
2022-12-24T10:18:49.333Z,17.02
2022-12-24T10:23:44.283Z,15.32
2022-12-24T10:28:44.217Z,14.07
2022-12-24T10:33:44.149Z,13.31
2022-12-24T10:38:44.076Z,12.91
2022-12-24T10:43:44.092Z,12.76
2022-12-24T10:48:50.300Z,13.30
2022-12-24T10:53:43.885Z,13.58
2022-12-24T10:58:43.810Z,13.05
2022-12-24T11:03:43.839Z,12.78
2022-12-24T11:08:43.681Z,12.53
2022-12-24T11:13:43.615Z,12.56
2022-12-24T11:18:48.707Z,12.61
2022-12-24T11:23:43.482Z,12.72
2022-12-24T11:28:43.402Z,12.75
2022-12-24T11:33:43.353Z,12.80
2022-12-24T11:38:43.284Z,13.28
2022-12-24T11:43:43.218Z,13.36
2022-12-24T11:48:43.163Z,13.22
2022-12-24T11:53:43.080Z,13.73
2022-12-24T11:58:43.009Z,13.85
2022-12-24T12:03:43.043Z,14.22
2022-12-24T12:08:42.883Z,14.26
2022-12-24T12:13:42.829Z,13.95
2022-12-24T12:18:42.749Z,13.62
2022-12-24T12:23:42.691Z,13.30
2022-12-24T12:28:42.623Z,13.01
2022-12-24T12:33:42.616Z,12.85
2022-12-24T12:38:42.486Z,12.79
2022-12-24T12:43:42.433Z,12.76
2022-12-24T12:48:42.359Z,12.72
2022-12-24T12:53:42.297Z,13.08
2022-12-24T12:58:42.228Z,13.31
2022-12-24T13:03:42.176Z,13.20
2022-12-24T13:08:42.089Z,12.90
2022-12-24T13:13:42.030Z,12.73
2022-12-24T13:18:41.956Z,12.60
2022-12-24T13:23:41.897Z,12.56
2022-12-24T13:28:41.827Z,12.44
2022-12-24T13:33:41.761Z,12.34
2022-12-24T13:38:41.688Z,12.28
2022-12-24T13:43:41.622Z,12.26
2022-12-24T13:48:41.551Z,12.17
2022-12-24T13:53:41.491Z,12.06
2022-12-24T13:58:41.415Z,12.03
2022-12-24T14:03:41.366Z,12.06
2022-12-24T14:08:41.285Z,12.05
2022-12-24T14:13:41.221Z,12.06
2022-12-24T14:18:41.170Z,12.02
2022-12-24T14:23:41.097Z,12.02
2022-12-24T14:28:41.020Z,12.02
2022-12-24T14:33:40.955Z,11.99
2022-12-24T14:38:40.894Z,11.96
2022-12-24T14:43:40.823Z,11.87
2022-12-24T14:48:40.747Z,11.77
2022-12-24T14:53:40.693Z,11.66
2022-12-24T14:58:40.612Z,11.51
2022-12-24T15:03:40.601Z,11.33
2022-12-24T15:08:40.502Z,11.14
2022-12-24T15:13:40.440Z,11.04
2022-12-24T15:18:40.343Z,10.91
2022-12-24T15:23:40.292Z,10.71
2022-12-24T15:28:40.211Z,10.56
2022-12-24T15:33:40.155Z,10.42
2022-12-24T15:38:40.083Z,10.30
2022-12-24T15:43:40.029Z,10.28
2022-12-24T15:48:39.948Z,10.16
2022-12-24T15:53:39.890Z,10.05
2022-12-24T15:58:39.819Z,9.99
2022-12-24T16:03:39.849Z,9.89
2022-12-24T16:08:39.678Z,9.86
2022-12-24T16:13:39.626Z,9.83
2022-12-24T16:18:39.544Z,9.79
2022-12-24T16:23:39.488Z,9.72
2022-12-24T16:28:39.407Z,9.61
2022-12-24T16:33:39.354Z,9.47
2022-12-24T16:38:39.277Z,9.33
2022-12-24T16:43:39.219Z,9.22
2022-12-24T16:48:39.147Z,9.20
2022-12-24T16:53:39.084Z,9.17
2022-12-24T16:58:39.017Z,9.15
2022-12-24T17:03:39.033Z,9.07
2022-12-24T17:08:38.879Z,9.04
2022-12-24T17:13:38.818Z,9.02
2022-12-24T17:18:38.748Z,8.97
2022-12-24T17:23:38.687Z,8.89
2022-12-24T17:28:38.608Z,8.85
2022-12-24T17:33:38.552Z,8.81
2022-12-24T17:38:38.474Z,8.85
2022-12-24T17:43:38.414Z,8.79
2022-12-24T17:48:38.356Z,8.69
2022-12-24T17:53:38.284Z,8.49
2022-12-24T17:58:38.211Z,8.22
2022-12-24T18:03:38.202Z,8.09
2022-12-24T18:08:38.076Z,7.99
2022-12-24T18:13:38.022Z,7.89
2022-12-24T18:18:37.944Z,7.81
2022-12-24T18:23:37.885Z,7.78
2022-12-24T18:28:37.810Z,7.74
2022-12-24T18:33:37.766Z,7.69
2022-12-24T18:38:37.677Z,7.51
2022-12-24T18:43:37.632Z,7.50
2022-12-24T18:48:37.555Z,7.47
2022-12-24T18:53:37.487Z,7.45
2022-12-24T18:58:37.415Z,7.42
2022-12-24T19:03:37.357Z,7.38
2022-12-24T19:13:38.253Z,7.33
2022-12-24T19:18:37.144Z,7.28
2022-12-24T19:23:37.083Z,7.17
2022-12-24T19:28:37.010Z,7.07
2022-12-24T19:33:42.209Z,7.10
2022-12-24T19:38:36.878Z,7.06
2022-12-24T19:43:36.828Z,7.03
2022-12-24T19:48:36.747Z,7.02
2022-12-24T19:53:36.696Z,7.05
2022-12-24T19:58:36.626Z,7.02
2022-12-24T20:03:36.634Z,6.96
2022-12-24T20:08:36.478Z,6.92
2022-12-24T20:13:36.421Z,6.88
2022-12-24T20:18:36.351Z,6.84
2022-12-24T20:23:36.290Z,6.81
2022-12-24T20:28:36.216Z,6.78
2022-12-24T20:33:36.153Z,6.77
2022-12-24T20:38:36.088Z,6.77
2022-12-24T20:43:41.394Z,6.71
2022-12-24T20:48:35.948Z,6.65
2022-12-24T20:53:35.895Z,6.58
2022-12-24T20:58:35.815Z,6.50
2022-12-24T21:03:35.857Z,6.50
2022-12-24T21:08:35.679Z,6.47
2022-12-24T21:13:35.620Z,6.58
2022-12-24T21:18:35.593Z,6.71
2022-12-24T21:23:35.486Z,6.81
2022-12-24T21:28:35.431Z,6.83
2022-12-24T21:33:38.273Z,6.80
2022-12-24T21:38:35.291Z,6.74
2022-12-24T21:43:35.226Z,6.74
2022-12-24T21:48:35.148Z,6.77
2022-12-24T21:53:35.090Z,6.81
2022-12-24T21:58:35.016Z,6.81
2022-12-24T22:03:35.082Z,6.77
2022-12-24T22:08:34.887Z,6.65
2022-12-24T22:13:34.833Z,6.50
2022-12-24T22:18:34.755Z,6.45
2022-12-24T22:23:40.454Z,6.45
2022-12-24T22:28:34.622Z,6.47
2022-12-24T22:33:34.559Z,6.47
2022-12-24T22:38:34.493Z,6.45
2022-12-24T22:43:34.428Z,6.51
2022-12-24T22:48:34.349Z,6.55
2022-12-24T22:53:34.296Z,6.51
2022-12-24T22:58:34.222Z,6.44
2022-12-24T23:03:34.339Z,6.44
2022-12-24T23:08:34.099Z,6.48
2022-12-24T23:13:34.025Z,6.58
2022-12-24T23:18:33.979Z,6.65
2022-12-24T23:23:37.159Z,6.73
2022-12-24T23:28:33.921Z,6.76
2022-12-24T23:33:33.909Z,6.76
2022-12-24T23:38:33.832Z,6.76
2022-12-24T23:43:33.866Z,6.77
2022-12-24T23:48:33.856Z,6.76
2022-12-24T23:53:33.972Z,6.63
2022-12-24T23:58:33.950Z,6.53
